createdAt,value
2023-01-27T00:00:05.352Z,1015.89
2023-01-27T00:16:01.564Z,1015.89
2023-01-27T00:31:02.793Z,1015.78
2023-01-27T00:46:03.894Z,1015.72
2023-01-27T01:00:04.872Z,1015.82
2023-01-27T01:16:01.183Z,1015.85
2023-01-27T01:31:02.316Z,1015.82
2023-01-27T01:46:03.402Z,1015.78
2023-01-27T02:00:04.434Z,1015.62
2023-01-27T02:16:00.913Z,1015.55
2023-01-27T02:31:02.231Z,1015.55
2023-01-27T02:46:03.407Z,1015.48
2023-01-27T03:00:04.321Z,1015.58
2023-01-27T03:16:05.611Z,1015.58
2023-01-27T03:31:01.652Z,1015.55
2023-01-27T03:46:02.766Z,1015.55
2023-01-27T04:00:03.958Z,1015.51
2023-01-27T04:16:07.735Z,1015.65
2023-01-27T04:31:01.580Z,1015.62
2023-01-27T04:46:02.533Z,1015.65
2023-01-27T05:00:03.710Z,1015.75
2023-01-27T05:16:04.939Z,1015.78
2023-01-27T05:31:03.509Z,1015.85
2023-01-27T05:46:01.984Z,1015.82
2023-01-27T06:00:03.121Z,1015.95
2023-01-27T06:16:04.694Z,1016.12
2023-01-27T06:31:00.864Z,1016.16
2023-01-27T06:46:05.420Z,1016.26
2023-01-27T07:00:03.331Z,1016.36
2023-01-27T07:16:04.565Z,1016.5
2023-01-27T07:31:00.813Z,1016.53
2023-01-27T07:46:03.689Z,1016.63
2023-01-27T08:00:03.005Z,1016.7
2023-01-27T08:16:04.355Z,1016.77
2023-01-27T08:31:05.703Z,1016.8
2023-01-27T08:46:01.964Z,1016.94
2023-01-27T09:00:03.094Z,1017.04
2023-01-27T09:16:04.446Z,1017.11
2023-01-27T09:31:05.763Z,1017
2023-01-27T09:46:12.436Z,1017
2023-01-27T10:00:31.265Z,1017
2023-01-27T10:16:04.792Z,1016.77
2023-01-27T10:31:12.236Z,1016.66
2023-01-27T10:46:03.077Z,1016.5
2023-01-27T11:13:23.224Z,1016.26
2023-01-27T11:16:01.899Z,1016.22
2023-01-27T11:31:03.410Z,1016.02
2023-01-27T11:46:04.850Z,1015.95
2023-01-27T12:00:02.018Z,1015.65
2023-01-27T12:16:04.372Z,1015.41
2023-01-27T12:31:01.653Z,1015.34
2023-01-27T12:46:01.657Z,1015.31
2023-01-27T13:00:05.889Z,1015.14
2023-01-27T13:16:03.072Z,1015.07
2023-01-27T13:31:05.534Z,1015.17
2023-01-27T13:46:02.621Z,1015.17
2023-01-27T14:00:04.596Z,1015.21
2023-01-27T14:16:01.845Z,1015.28
2023-01-27T14:31:03.950Z,1015.31
2023-01-27T14:46:01.575Z,1015.24
2023-01-27T15:00:02.977Z,1015.34
2023-01-27T15:16:20.889Z,1015.38
2023-01-27T15:31:02.578Z,1015.48
2023-01-27T15:46:04.808Z,1015.51
2023-01-27T16:00:02.528Z,1015.68
2023-01-27T16:16:04.090Z,1015.82
2023-01-27T16:31:01.165Z,1016.02
2023-01-27T16:46:03.236Z,1016.39
2023-01-27T17:00:05.315Z,1016.46
2023-01-27T17:16:02.503Z,1016.8
2023-01-27T17:31:07.107Z,1016.87
2023-01-27T17:46:01.893Z,1016.97
2023-01-27T18:00:03.735Z,1017.17
2023-01-27T18:16:01.236Z,1017.38
2023-01-27T18:31:03.582Z,1017.68
2023-01-27T18:46:05.403Z,1017.78
2023-01-27T19:00:02.285Z,1017.85
2023-01-27T19:16:04.648Z,1017.85
2023-01-27T19:31:01.521Z,1017.99
2023-01-27T19:46:03.424Z,1017.95
2023-01-27T20:00:05.378Z,1018.09
2023-01-27T20:16:02.709Z,1018.05
2023-01-27T20:31:04.752Z,1018.19
2023-01-27T20:46:01.843Z,1018.16
2023-01-27T21:00:03.938Z,1018.19
2023-01-27T21:16:06.045Z,1018.19
2023-01-27T21:31:03.040Z,1018.12
2023-01-27T21:46:05.300Z,1018.26
2023-01-27T22:00:02.310Z,1018.39
2023-01-27T22:16:04.711Z,1018.39
2023-01-27T22:31:02.001Z,1018.26
2023-01-27T22:46:04.268Z,1018.22
2023-01-27T23:00:01.180Z,1018.26
2023-01-27T23:16:03.561Z,1018.19
2023-01-27T23:31:05.634Z,1018.19
2023-01-27T23:46:02.868Z,1018.29
